Forside
METAR-TAF:

METAR-TAF

Lufthavne :

Bridgeport, Californien, USA

Breddekreds: 38-15-45N, længdekreds: 119-13-33W, højde: 1973 m

Aktuelle vejr

Denne rapport blev lavet for 54 minutter siden, kl. 04:52 UTC
Vind stille
Temperatur 2°C
Fugtighed 69%
Tryk 1020 hPa
Sigt: 16.1 km
Nogle få skyer i en højde af 6000 ft
Overskyet i en højde af 7500 ft

METAR: KBAN 220452Z AUTO 00000KT 10SM FEW060 OVC075 02/M03 A3013 RMK AO2 SLP205 T00171033 $

Tid: 21:46 (05:46 UTC)


TAF: fraværende

Vejrobservationer og prognoser fra mere end 4000 lufthavne (METAR og TAF).

De gule og røde prikker repræsenterer de meteorologiske stationer.

Flyt musen over at se navnet på stationen.

Så klik over at se vejr observationer og prognoser.

At skifte det kort: Klik på de grønne knapper med et sort kors for at zoome ind; på den grønne knap med en bindestreg for at zoome ud; eller på de grønne pile for tilstødende kort.


METAR-TAF: